Time;durP1;ratioP1;P1;durP2;ratioP2;P2;SDS_P1;SDS_P2;PMS_P1;PMS_P2;Temp;Humidity;BMP_temperature;BMP_pressure;BME280_temperature;BME280_humidity;BME280_pressure;Samples;Min_cycle;Max_cycle;Signal;HPM_P1;HPM_P2
2023/06/13 00:00:44;;;;;;;11.60;6.70;;;;;;;9.52;70.62;98006.90;106830;1276;25265;-75
2023/06/13 00:03:33;;;;;;;10.20;6.10;;;;;;;9.43;70.94;98006.22;106789;1276;22520;-75
2023/06/13 00:06:02;;;;;;;11.20;5.90;;;;;;;9.40;72.23;98005.17;106843;1276;24147;-75
2023/06/13 00:08:34;;;;;;;9.80;5.70;;;;;;;9.35;72.55;98004.80;106835;1276;25186;-75
2023/06/13 00:11:02;;;;;;;9.40;6.20;;;;;;;9.34;72.64;98003.96;106810;1276;22640;-75
2023/06/13 00:13:30;;;;;;;7.50;6.20;;;;;;;9.32;72.54;98000.80;106815;1276;22525;-74
2023/06/13 00:16:00;;;;;;;7.00;5.40;;;;;;;9.28;73.57;97995.91;106839;1276;24222;-77
2023/06/13 00:18:31;;;;;;;7.80;5.50;;;;;;;9.31;73.02;97993.71;106841;1276;25623;-77
2023/06/13 00:20:59;;;;;;;11.40;6.50;;;;;;;9.35;72.95;97990.81;107056;1276;22583;-76
2023/06/13 00:23:27;;;;;;;7.10;5.70;;;;;;;9.34;72.44;97985.63;106786;1276;23000;-76
2023/06/13 00:25:56;;;;;;;11.50;6.20;;;;;;;9.29;72.39;97980.89;106857;1276;22556;-76
2023/06/13 00:28:24;;;;;;;9.00;6.20;;;;;;;9.24;72.80;97978.42;106864;1276;22607;-76
2023/06/13 00:30:53;;;;;;;7.80;5.50;;;;;;;9.25;72.43;97978.27;106837;1276;25330;-76
2023/06/13 00:33:21;;;;;;;8.50;6.10;;;;;;;9.20;73.58;97976.16;106810;1275;22533;-76
2023/06/13 00:35:49;;;;;;;14.60;6.00;;;;;;;9.11;73.76;97975.13;106817;1276;22534;-76
2023/06/13 00:38:21;;;;;;;9.20;6.40;;;;;;;9.03;74.97;97974.75;106629;1276;24203;-76
2023/06/13 00:40:52;;;;;;;9.00;5.70;;;;;;;8.94;75.07;97973.95;106853;1276;25387;-75
2023/06/13 00:43:20;;;;;;;8.70;5.50;;;;;;;8.82;74.92;97969.77;106795;1276;22575;-75
2023/06/13 00:45:49;;;;;;;6.90;5.40;;;;;;;8.78;74.89;97966.00;106798;1276;22647;-76
2023/06/13 00:48:18;;;;;;;11.50;5.50;;;;;;;8.74;75.61;97959.92;106858;1276;22530;-75
2023/06/13 00:50:48;;;;;;;7.50;5.30;;;;;;;8.67;76.04;97961.16;106865;1276;22539;-76
2023/06/13 00:53:19;;;;;;;6.50;5.50;;;;;;;8.61;76.83;97958.38;106866;1276;26692;-76
2023/06/13 00:55:50;;;;;;;9.50;6.20;;;;;;;8.51;76.95;97956.76;106613;1276;22532;-76
2023/06/13 00:58:19;;;;;;;6.80;5.50;;;;;;;8.42;76.99;97957.98;106920;1276;22534;-76
2023/06/13 01:00:49;;;;;;;7.00;5.60;;;;;;;8.36;77.66;97953.06;106902;1276;22783;-76
2023/06/13 01:03:17;;;;;;;6.80;5.30;;;;;;;8.32;78.12;97954.70;106860;1276;24240;-75
2023/06/13 01:05:47;;;;;;;6.50;5.80;;;;;;;8.32;77.99;97954.16;106777;1276;22938;-76
2023/06/13 01:08:24;;;;;;;7.90;6.00;;;;;;;8.30;78.19;97953.54;106612;1276;25467;-76
2023/06/13 01:11:25;;;;;;;7.70;6.10;;;;;;;8.21;77.90;97953.23;106840;1276;22780;-76
2023/06/13 01:14:03;;;;;;;15.60;5.80;;;;;;;8.15;77.94;97952.17;106112;1284;25224;-76
2023/06/13 01:16:47;;;;;;;7.70;5.30;;;;;;;8.12;78.30;97953.11;106184;1284;22653;-75
2023/06/13 01:19:31;;;;;;;7.30;5.60;;;;;;;8.13;79.93;97949.92;106188;1284;25333;-75
2023/06/13 01:22:01;;;;;;;8.10;6.00;;;;;;;8.06;79.94;97948.37;106214;1284;23834;-75
2023/06/13 01:24:42;;;;;;;8.40;5.40;;;;;;;7.98;80.12;97951.82;106162;1284;22560;-75
2023/06/13 01:27:12;;;;;;;10.20;6.10;;;;;;;7.95;80.24;97952.32;106109;1284;22805;-75
2023/06/13 01:29:43;;;;;;;8.00;5.50;;;;;;;7.98;80.19;97952.89;106059;1284;22544;-75
2023/06/13 01:32:13;;;;;;;9.70;5.20;;;;;;;7.97;80.81;97945.01;106116;1284;22783;-75
2023/06/13 01:34:45;;;;;;;9.10;5.70;;;;;;;7.92;80.83;97949.39;106067;1284;25330;-75
2023/06/13 01:37:14;;;;;;;8.30;5.70;;;;;;;7.89;81.12;97945.51;106083;1284;22544;-75
2023/06/13 01:39:44;;;;;;;6.70;5.90;;;;;;;7.86;81.29;97943.16;106070;1284;22546;-75
2023/06/13 01:42:12;;;;;;;7.20;5.40;;;;;;;7.83;81.39;97941.58;106072;1284;25406;-75
2023/06/13 01:44:41;;;;;;;8.10;5.70;;;;;;;7.80;81.80;97942.13;106051;1284;22690;-75
2023/06/13 01:47:48;;;;;;;10.00;6.40;;;;;;;7.76;82.26;97938.98;106127;1284;22543;-75
2023/06/13 01:50:24;;;;;;;5.90;5.30;;;;;;;7.72;83.02;97934.95;106125;1276;23410;-75
2023/06/13 01:53:06;;;;;;;8.60;5.70;;;;;;;7.71;83.09;97939.08;106819;1276;24259;-75
2023/06/13 01:55:51;;;;;;;8.40;5.50;;;;;;;7.71;83.68;97937.84;106813;1276;22670;-74
2023/06/13 01:58:26;;;;;;;7.40;5.70;;;;;;;7.76;84.56;97937.27;106591;1276;22949;-75
2023/06/13 02:00:55;;;;;;;10.50;5.60;;;;;;;7.76;84.66;97936.31;106613;1276;24961;-75
2023/06/13 02:03:24;;;;;;;6.10;5.50;;;;;;;7.78;84.81;97932.44;106879;1276;22532;-75
2023/06/13 02:05:52;;;;;;;7.30;5.00;;;;;;;7.77;84.38;97929.17;106900;1276;24267;-75
2023/06/13 02:08:20;;;;;;;8.20;5.40;;;;;;;7.76;84.92;97926.39;106579;1276;23028;-75
2023/06/13 02:10:48;;;;;;;6.00;5.30;;;;;;;7.73;85.20;97924.05;106841;1276;22581;-75
2023/06/13 02:13:16;;;;;;;8.40;5.60;;;;;;;7.66;84.84;97924.36;106796;1276;25496;-75
2023/06/13 02:15:44;;;;;;;9.30;6.70;;;;;;;7.62;84.90;97923.70;106605;1276;24253;-75
2023/06/13 02:18:13;;;;;;;9.90;5.40;;;;;;;7.59;85.58;97920.77;106833;1276;25371;-75
2023/06/13 02:20:41;;;;;;;5.80;5.00;;;;;;;7.56;84.97;97919.39;106791;1276;25251;-75
2023/06/13 02:23:09;;;;;;;7.30;5.20;;;;;;;7.56;84.69;97922.39;106792;1276;22630;-76
2023/06/13 02:25:37;;;;;;;9.20;5.20;;;;;;;7.50;84.15;97921.69;106785;1276;24199;-77
2023/06/13 02:28:05;;;;;;;7.10;5.80;;;;;;;7.38;83.61;97921.81;106628;1276;26633;-77
2023/06/13 02:30:33;;;;;;;6.90;5.60;;;;;;;7.28;82.93;97924.92;106781;1276;25448;-77
2023/06/13 02:33:01;;;;;;;7.50;5.30;;;;;;;7.23;82.71;97928.97;106852;1276;22537;-77
2023/06/13 02:35:29;;;;;;;8.10;5.20;;;;;;;7.19;82.36;97927.16;106805;1276;23987;-77
2023/06/13 02:37:57;;;;;;;7.70;6.10;;;;;;;7.14;82.22;97923.10;106832;1276;24346;-77
2023/06/13 02:40:25;;;;;;;7.50;6.10;;;;;;;7.11;82.06;97924.98;106820;1276;22623;-78
2023/06/13 02:42:53;;;;;;;8.90;5.80;;;;;;;7.13;82.20;97926.38;106814;1276;22644;-77
2023/06/13 02:45:21;;;;;;;8.30;5.80;;;;;;;7.16;82.31;97924.40;106828;1276;22524;-77
2023/06/13 02:47:50;;;;;;;6.90;5.50;;;;;;;7.15;83.81;97927.29;106832;1276;22531;-77
2023/06/13 02:50:19;;;;;;;6.90;5.50;;;;;;;7.11;82.71;97927.35;106635;1276;25518;-78
2023/06/13 02:52:48;;;;;;;6.40;5.30;;;;;;;7.07;82.40;97922.49;106834;1276;22562;-77
2023/06/13 02:55:20;;;;;;;7.70;5.50;;;;;;;6.99;81.97;97924.67;106962;1276;22551;-77
2023/06/13 02:57:48;;;;;;;7.30;5.20;;;;;;;6.95;82.32;97919.55;107052;1276;25249;-78
2023/06/13 03:00:16;;;;;;;8.00;5.10;;;;;;;6.91;83.10;97920.55;106905;1276;22666;-78
2023/06/13 03:02:50;;;;;;;7.60;5.30;;;;;;;6.87;82.95;97922.91;106941;1276;25252;-78
2023/06/13 03:05:20;;;;;;;7.70;5.70;;;;;;;6.87;83.35;97919.69;106921;1276;25304;-79
2023/06/13 03:07:50;;;;;;;7.60;5.10;;;;;;;6.91;84.40;97917.38;107240;1276;25370;-79
2023/06/13 03:10:23;;;;;;;6.30;4.90;;;;;;;6.95;83.74;97918.05;107163;1276;22579;-78
2023/06/13 03:12:51;;;;;;;5.50;5.00;;;;;;;6.98;83.66;97922.60;106825;1276;25339;-77
2023/06/13 03:15:20;;;;;;;6.70;5.00;;;;;;;6.95;84.21;97918.90;106577;1276;22616;-77
2023/06/13 03:17:48;;;;;;;6.60;5.20;;;;;;;6.90;84.23;97919.36;106817;1276;23034;-77
2023/06/13 03:20:16;;;;;;;7.80;5.60;;;;;;;6.85;84.47;97923.71;106798;1276;22938;-78
2023/06/13 03:22:56;;;;;;;7.40;5.40;;;;;;;6.85;83.92;97924.09;106824;1276;22602;-78
2023/06/13 03:25:25;;;;;;;6.40;5.10;;;;;;;6.88;83.67;97925.10;106819;1276;22539;-78
2023/06/13 03:27:53;;;;;;;6.00;4.60;;;;;;;6.94;83.44;97928.29;106622;1276;25418;-79
2023/06/13 03:30:22;;;;;;;6.90;5.90;;;;;;;7.02;83.47;97928.09;106657;1276;22577;-77
2023/06/13 03:32:54;;;;;;;11.60;9.50;;;;;;;7.08;83.52;97930.76;106787;1276;25309;-77
2023/06/13 03:35:25;;;;;;;9.90;8.80;;;;;;;7.15;83.59;97929.80;106870;1276;22548;-77
2023/06/13 03:37:53;;;;;;;9.40;8.40;;;;;;;7.22;83.72;97929.13;106676;1276;25392;-76
2023/06/13 03:40:22;;;;;;;10.90;7.10;;;;;;;7.26;83.55;97928.88;106824;1276;25220;-78
2023/06/13 03:42:50;;;;;;;8.60;7.30;;;;;;;7.35;83.54;97926.70;106733;1276;22576;-77
2023/06/13 03:45:19;;;;;;;10.40;9.00;;;;;;;7.45;83.46;97926.86;106831;1276;24272;-77
2023/06/13 03:47:47;;;;;;;13.80;8.70;;;;;;;7.55;83.26;97920.63;106869;1276;25465;-76
2023/06/13 03:50:16;;;;;;;13.10;9.70;;;;;;;7.66;83.31;97919.53;106855;1276;24248;-76
2023/06/13 03:52:45;;;;;;;11.40;8.40;;;;;;;7.75;83.77;97921.20;106853;1276;25327;-77
2023/06/13 03:55:13;;;;;;;9.70;8.70;;;;;;;7.82;83.66;97913.20;106802;1276;22879;-77
2023/06/13 03:57:41;;;;;;;10.50;9.50;;;;;;;7.89;83.63;97915.63;106722;1276;22525;-78
2023/06/13 04:00:12;;;;;;;11.60;10.50;;;;;;;7.97;83.44;97917.59;107010;1276;25497;-79
2023/06/13 04:02:41;;;;;;;10.80;7.90;;;;;;;8.07;83.56;97916.16;107259;1276;22540;-78
2023/06/13 04:05:13;;;;;;;13.50;8.30;;;;;;;8.17;83.85;97912.84;107004;1276;25217;-80
2023/06/13 04:07:42;;;;;;;12.70;8.70;;;;;;;8.27;83.72;97916.84;107074;1276;22581;-80
2023/06/13 04:10:11;;;;;;;14.30;8.00;;;;;;;8.37;83.76;97919.86;107053;1276;25217;-79
2023/06/13 04:12:39;;;;;;;10.50;8.40;;;;;;;8.48;83.73;97916.98;107105;1276;22527;-80
2023/06/13 04:15:07;;;;;;;9.90;7.00;;;;;;;8.58;83.85;97921.55;107012;1276;25385;-80
2023/06/13 04:17:37;;;;;;;12.10;7.30;;;;;;;8.70;83.63;97923.67;107153;1276;22621;-80
2023/06/13 04:20:14;;;;;;;10.30;6.60;;;;;;;8.85;83.90;97917.70;107221;1276;22630;-81
2023/06/13 04:22:44;;;;;;;9.40;6.30;;;;;;;9.02;84.20;97914.11;107115;1276;22725;-81
2023/06/13 04:25:12;;;;;;;8.10;5.30;;;;;;;9.18;84.68;97912.36;107189;1276;22524;-80
2023/06/13 04:27:43;;;;;;;7.80;5.20;;;;;;;9.31;84.62;97909.61;107100;1276;25579;-77
2023/06/13 04:30:12;;;;;;;8.80;5.40;;;;;;;9.67;86.75;97906.02;107119;1276;24230;-76
2023/06/13 04:32:45;;;;;;;8.00;5.80;;;;;;;10.08;84.89;97909.69;106840;1276;22629;-75
2023/06/13 04:35:17;;;;;;;8.20;5.30;;;;;;;10.19;84.71;97911.44;106788;1276;22704;-76
2023/06/13 04:37:46;;;;;;;7.90;5.60;;;;;;;10.28;84.96;97912.42;106945;1276;22533;-76
2023/06/13 04:40:16;;;;;;;8.30;4.70;;;;;;;10.44;86.17;97915.91;107816;1276;25284;-77
2023/06/13 04:42:51;;;;;;;10.60;5.00;;;;;;;11.24;88.38;97916.35;107170;1276;22605;-79
2023/06/13 04:45:20;;;;;;;;;;;;;;;12.00;86.81;97910.60;107234;1276;24246;-77
2023/06/13 04:47:51;;;;;;;7.10;5.10;;;;;;;12.47;85.68;97910.03;107100;1276;22628;-77
2023/06/13 04:50:25;;;;;;;8.20;5.20;;;;;;;12.53;84.11;97905.66;107208;1276;22693;-79
2023/06/13 04:52:57;;;;;;;7.50;5.10;;;;;;;12.33;83.32;97913.11;107178;1276;22596;-81
2023/06/13 04:55:29;;;;;;;7.20;5.10;;;;;;;12.12;83.24;97911.67;107152;1276;22520;-78
2023/06/13 04:57:58;;;;;;;8.10;5.70;;;;;;;11.87;82.93;97910.38;106798;1276;22590;-79
2023/06/13 05:00:26;;;;;;;7.60;5.50;;;;;;;11.70;82.91;97910.33;106911;1276;22660;-79
2023/06/13 05:02:56;;;;;;;9.70;5.50;;;;;;;11.60;82.89;97910.50;106835;1276;22537;-79
2023/06/13 05:05:25;;;;;;;10.00;5.90;;;;;;;11.61;83.32;97909.14;107120;1276;23273;-79
2023/06/13 05:07:59;;;;;;;9.70;5.50;;;;;;;11.72;83.17;97904.63;107209;1276;22534;-79
2023/06/13 05:10:28;;;;;;;10.00;6.20;;;;;;;11.79;82.42;97905.25;107136;1276;25255;-78
2023/06/13 05:12:57;;;;;;;6.80;5.50;;;;;;;11.83;82.46;97907.08;106811;1276;22524;-77
2023/06/13 05:15:25;;;;;;;8.60;6.40;;;;;;;11.88;82.17;97906.42;106732;1276;160856;-77
2023/06/13 05:17:54;;;;;;;7.20;6.10;;;;;;;11.94;81.98;97906.66;106834;1276;25341;-77
2023/06/13 05:20:30;;;;;;;7.30;4.90;;;;;;;11.89;81.61;97904.78;107069;1276;22572;-77
2023/06/13 05:23:00;;;;;;;8.20;6.20;;;;;;;11.88;81.88;97904.02;106827;1276;23030;-77
2023/06/13 05:25:29;;;;;;;6.90;5.70;;;;;;;11.93;81.62;97904.84;107183;1275;23859;-78
2023/06/13 05:27:58;;;;;;;7.10;5.60;;;;;;;11.93;81.37;97901.06;107243;1275;22543;-80
2023/06/13 05:30:26;;;;;;;8.10;5.40;;;;;;;11.94;81.32;97903.42;107180;1275;23398;-79
2023/06/13 05:32:54;;;;;;;7.50;5.30;;;;;;;12.01;81.33;97902.45;107150;1276;24264;-79
2023/06/13 05:35:23;;;;;;;8.00;5.80;;;;;;;12.05;81.00;97902.77;107103;1276;23025;-79
2023/06/13 05:37:51;;;;;;;7.30;6.20;;;;;;;12.07;80.91;97905.48;106981;1276;22540;-79
2023/06/13 05:40:19;;;;;;;7.80;6.20;;;;;;;12.05;80.64;97909.64;107200;1276;22546;-79
2023/06/13 05:42:47;;;;;;;10.60;6.00;;;;;;;12.09;80.54;97906.48;107193;1275;24224;-79
2023/06/13 05:45:15;;;;;;;7.50;6.30;;;;;;;12.11;80.44;97900.36;107227;1275;24441;-79
2023/06/13 05:47:43;;;;;;;8.30;6.00;;;;;;;12.15;80.32;97893.84;107233;1264;25290;-79
2023/06/13 05:50:12;;;;;;;7.20;5.60;;;;;;;12.20;80.03;97898.66;107135;1276;22786;-80
2023/06/13 05:52:41;;;;;;;9.70;5.50;;;;;;;12.29;80.05;97896.46;106999;1269;22564;-79
2023/06/13 05:55:09;;;;;;;8.50;6.10;;;;;;;12.41;80.12;97901.33;107238;1275;23001;-79
2023/06/13 05:57:42;;;;;;;14.00;6.60;;;;;;;12.53;80.12;97899.81;107100;1276;25327;-79
2023/06/13 06:00:12;;;;;;;6.10;5.20;;;;;;;12.61;79.32;97900.07;107356;1275;23829;-79
2023/06/13 06:02:46;;;;;;;16.20;6.10;;;;;;;12.64;79.54;97896.44;107423;1275;24363;-79
2023/06/13 06:05:15;;;;;;;7.10;4.90;;;;;;;12.77;79.32;97896.89;107411;1273;22643;-77
2023/06/13 06:07:45;;;;;;;6.40;5.40;;;;;;;12.84;78.72;97897.93;106960;1275;25312;-79
2023/06/13 06:10:13;;;;;;;8.00;5.00;;;;;;;12.90;78.36;97901.77;107340;1275;22552;-79
2023/06/13 06:12:42;;;;;;;6.50;4.90;;;;;;;12.98;78.33;97901.13;107336;1276;22518;-79
2023/06/13 06:15:11;;;;;;;6.90;4.50;;;;;;;12.99;77.31;97899.42;107303;1275;25217;-78
2023/06/13 06:17:39;;;;;;;6.80;4.10;;;;;;;13.00;77.56;97896.91;107332;1276;25315;-78
2023/06/13 06:20:08;;;;;;;7.10;4.40;;;;;;;13.13;77.90;97900.46;106869;1276;22529;-78
2023/06/13 06:22:36;;;;;;;7.20;4.00;;;;;;;13.24;77.16;97895.80;107368;1276;25325;-78
2023/06/13 06:25:05;;;;;;;5.90;4.00;;;;;;;13.24;76.61;97892.66;106920;1263;22688;-80
2023/06/13 06:27:34;;;;;;;6.70;4.20;;;;;;;13.17;76.27;97897.45;107323;1276;24199;-79
2023/06/13 06:30:04;;;;;;;5.30;4.20;;;;;;;13.24;76.67;97897.31;107103;1276;22645;-79
2023/06/13 06:32:32;;;;;;;5.80;4.60;;;;;;;13.44;76.62;97890.28;107433;1276;23893;-80
2023/06/13 06:35:03;;;;;;;6.30;4.40;;;;;;;13.67;76.32;97883.39;107323;1276;24235;-78
2023/06/13 06:37:32;;;;;;;6.00;3.50;;;;;;;13.78;75.39;97887.88;107288;1275;25494;-80
2023/06/13 06:40:00;;;;;;;5.80;4.30;;;;;;;13.87;76.00;97890.34;107433;1275;22522;-78
2023/06/13 06:42:28;;;;;;;6.40;4.50;;;;;;;13.90;75.96;97894.36;107430;1275;23020;-78
2023/06/13 06:45:06;;;;;;;5.10;4.10;;;;;;;13.87;75.57;97896.41;107320;1275;25587;-79
2023/06/13 06:47:34;;;;;;;8.80;4.90;;;;;;;13.86;75.32;97893.64;107327;1275;23278;-79
2023/06/13 06:50:02;;;;;;;7.90;4.30;;;;;;;13.86;74.84;97891.57;107232;1276;25555;-79
2023/06/13 06:52:31;;;;;;;9.60;5.50;;;;;;;13.83;74.75;97889.82;107216;1276;24187;-79
2023/06/13 06:54:59;;;;;;;10.70;6.10;;;;;;;13.87;74.90;97886.98;107257;1276;22527;-79
2023/06/13 06:57:27;;;;;;;9.80;5.60;;;;;;;14.14;74.44;97887.09;107395;1276;25313;-79
2023/06/13 06:59:55;;;;;;;10.60;5.40;;;;;;;14.44;73.53;97889.23;107336;1276;22578;-79
2023/06/13 07:02:23;;;;;;;6.50;5.30;;;;;;;14.63;72.87;97888.16;107309;1276;22701;-79
2023/06/13 07:04:51;;;;;;;6.40;5.30;;;;;;;14.79;72.65;97889.14;107353;1276;24249;-78
2023/06/13 07:07:19;;;;;;;5.60;4.70;;;;;;;14.94;72.44;97887.96;106868;1269;22816;-79
2023/06/13 07:09:47;;;;;;;8.20;5.00;;;;;;;15.14;72.34;97887.77;106920;1276;25530;-79
2023/06/13 07:12:15;;;;;;;8.60;5.00;;;;;;;15.26;70.93;97891.41;107241;1276;25366;-80
2023/06/13 07:14:43;;;;;;;6.90;4.90;;;;;;;15.15;71.58;97888.06;106877;1276;25393;-78
2023/06/13 07:17:11;;;;;;;7.10;4.80;;;;;;;15.08;70.90;97888.94;106875;1276;22534;-78
2023/06/13 07:19:39;;;;;;;7.60;4.30;;;;;;;15.14;70.56;97883.05;107188;1276;22629;-78
2023/06/13 07:22:07;;;;;;;6.50;4.40;;;;;;;15.23;70.44;97887.44;107234;1276;24186;-78
2023/06/13 07:24:35;;;;;;;7.70;4.60;;;;;;;15.36;69.62;97879.95;107298;1276;26882;-77
2023/06/13 07:27:04;;;;;;;9.20;4.50;;;;;;;15.44;69.69;97879.24;107300;1276;22787;-77
2023/06/13 07:29:31;;;;;;;8.70;4.60;;;;;;;15.51;69.32;97880.11;107315;1276;24219;-77
2023/06/13 07:32:01;;;;;;;6.70;4.30;;;;;;;15.42;68.97;97878.86;107276;1276;22524;-78
2023/06/13 07:34:29;;;;;;;5.00;4.40;;;;;;;15.34;68.83;97881.10;107350;1276;22577;-77
2023/06/13 07:37:02;;;;;;;7.30;5.70;;;;;;;15.21;67.94;97876.59;107284;1273;22548;-78
2023/06/13 07:39:31;;;;;;;7.10;4.50;;;;;;;15.31;68.24;97880.61;107325;1276;22540;-77
2023/06/13 07:41:59;;;;;;;8.90;4.30;;;;;;;15.56;67.99;97876.18;107398;1276;24052;-77
2023/06/13 07:44:27;;;;;;;5.40;4.20;;;;;;;15.73;66.85;97877.90;107293;1276;25247;-79
2023/06/13 07:46:55;;;;;;;5.30;3.90;;;;;;;15.89;66.28;97876.16;107415;1276;24220;-78
2023/06/13 07:49:23;;;;;;;6.70;3.20;;;;;;;16.06;65.83;97876.22;107411;1275;25261;-78
2023/06/13 07:51:51;;;;;;;5.50;3.50;;;;;;;16.15;66.06;97871.95;107484;1275;24287;-78
2023/06/13 07:54:21;;;;;;;7.40;3.70;;;;;;;16.28;65.90;97877.82;107303;1275;22618;-78
2023/06/13 07:56:51;;;;;;;5.90;3.50;;;;;;;16.38;65.28;97881.26;107304;1275;22523;-79
2023/06/13 07:59:19;;;;;;;5.10;3.20;;;;;;;16.32;64.69;97884.04;106916;1276;22515;-77
2023/06/13 08:01:47;;;;;;;3.40;3.00;;;;;;;16.17;64.72;97883.42;107313;1276;25261;-77
2023/06/13 08:04:16;;;;;;;10.60;3.10;;;;;;;16.03;64.89;97878.60;107266;1276;25190;-78
2023/06/13 08:06:44;;;;;;;6.10;3.50;;;;;;;15.90;64.69;97880.17;107325;1275;22613;-77
2023/06/13 08:09:12;;;;;;;6.60;3.20;;;;;;;15.89;65.02;97876.48;107278;1275;25354;-77
2023/06/13 08:11:40;;;;;;;5.20;3.20;;;;;;;16.06;64.36;97874.59;107347;1262;22545;-78
2023/06/13 08:14:12;;;;;;;5.10;2.90;;;;;;;16.12;63.64;97878.20;107328;1275;24392;-78
2023/06/13 08:16:42;;;;;;;4.70;2.70;;;;;;;16.13;63.70;97884.84;107301;1275;25482;-77
2023/06/13 08:19:10;;;;;;;5.00;3.70;;;;;;;16.32;63.45;97884.48;107338;1263;22629;-79
2023/06/13 08:21:38;;;;;;;4.70;3.00;;;;;;;16.39;62.09;97882.48;107340;1275;24261;-77
2023/06/13 08:24:07;;;;;;;5.30;2.80;;;;;;;16.33;62.29;97882.66;107344;1275;23204;-78
2023/06/13 08:26:35;;;;;;;3.20;2.70;;;;;;;16.20;60.69;97879.95;107320;1275;24647;-78
2023/06/13 08:29:03;;;;;;;3.90;2.80;;;;;;;16.20;61.34;97888.96;107344;1275;22527;-79
2023/06/13 08:31:32;;;;;;;4.40;2.90;;;;;;;16.39;61.05;97882.87;107379;1275;22535;-78
2023/06/13 08:34:05;;;;;;;4.70;2.80;;;;;;;16.50;60.11;97882.60;107471;1275;22524;-79
2023/06/13 08:36:38;;;;;;;3.60;2.80;;;;;;;16.63;60.21;97876.52;107339;1273;25360;-78
2023/06/13 08:39:07;;;;;;;5.70;2.70;;;;;;;16.74;60.24;97882.88;107360;1275;25405;-78
2023/06/13 08:41:37;;;;;;;4.40;2.90;;;;;;;16.73;60.17;97882.10;107248;1275;23950;-79
2023/06/13 08:44:07;;;;;;;5.20;2.70;;;;;;;16.84;60.03;97879.48;107221;1275;24498;-79
2023/06/13 08:46:36;;;;;;;10.50;2.70;;;;;;;16.99;58.91;97878.06;107245;1269;25322;-79
2023/06/13 08:49:04;;;;;;;6.50;3.30;;;;;;;17.16;59.26;97877.42;107199;1276;22547;-78
2023/06/13 08:51:32;;;;;;;4.10;2.70;;;;;;;17.35;57.58;97875.20;107260;1276;23369;-78
2023/06/13 08:54:02;;;;;;;4.50;2.60;;;;;;;17.48;58.43;97878.16;107266;1276;22522;-78
2023/06/13 08:56:43;;;;;;;4.30;2.80;;;;;;;17.56;57.76;97871.21;107296;1276;22653;-79
2023/06/13 08:59:19;;;;;;;4.30;2.80;;;;;;;17.55;57.37;97876.51;107322;1276;22518;-78
2023/06/13 09:01:49;;;;;;;7.10;2.90;;;;;;;17.61;56.39;97872.85;107335;1276;25635;-78
2023/06/13 09:04:18;;;;;;;5.90;2.60;;;;;;;17.63;56.16;97875.41;107182;1276;22525;-79
2023/06/13 09:06:46;;;;;;;3.10;2.50;;;;;;;17.69;57.21;97876.83;107297;1276;24258;-78
2023/06/13 09:09:16;;;;;;;3.30;2.40;;;;;;;17.73;56.92;97877.07;107251;1266;25513;-77
2023/06/13 09:11:45;;;;;;;5.50;2.80;;;;;;;17.59;56.20;97873.02;107395;1276;24237;-78
2023/06/13 09:14:18;;;;;;;4.00;2.60;;;;;;;17.70;57.14;97876.30;107294;1276;23507;-78
2023/06/13 09:16:50;;;;;;;3.70;2.70;;;;;;;17.98;56.60;97878.91;107263;1276;22537;-78
2023/06/13 09:19:18;;;;;;;6.20;2.80;;;;;;;17.98;55.98;97876.39;107320;1276;22540;-78
2023/06/13 09:21:46;;;;;;;3.50;2.50;;;;;;;17.98;55.89;97876.89;107315;1276;22541;-78
2023/06/13 09:24:15;;;;;;;5.20;2.90;;;;;;;18.07;55.13;97878.35;107310;1276;22668;-78
2023/06/13 09:26:45;;;;;;;5.40;3.20;;;;;;;18.10;54.86;97873.15;107257;1271;22556;-79
2023/06/13 09:29:13;;;;;;;4.00;3.00;;;;;;;18.01;54.45;97876.03;107426;1276;22585;-78
2023/06/13 09:31:44;;;;;;;4.70;2.80;;;;;;;17.94;54.28;97871.63;107286;1276;25354;-78
2023/06/13 09:34:14;;;;;;;3.20;2.70;;;;;;;17.85;54.83;97866.16;107163;1276;24258;-78
2023/06/13 09:36:43;;;;;;;3.30;3.00;;;;;;;18.07;54.63;97867.86;107272;1276;22651;-78
2023/06/13 09:39:11;;;;;;;3.40;2.50;;;;;;;18.36;54.18;97862.06;107380;1273;22540;-78
2023/06/13 09:41:40;;;;;;;3.80;2.70;;;;;;;18.63;54.06;97861.65;107270;1271;22534;-78
2023/06/13 09:44:10;;;;;;;4.90;2.90;;;;;;;18.85;53.47;97856.43;107267;1275;22535;-78
2023/06/13 09:46:38;;;;;;;4.50;2.80;;;;;;;18.87;52.34;97852.73;107441;1275;22621;-78
2023/06/13 09:49:08;;;;;;;4.80;2.80;;;;;;;18.65;52.56;97854.27;106803;1276;22651;-77
2023/06/13 09:51:37;;;;;;;3.50;2.70;;;;;;;18.50;52.96;97853.06;106882;1276;22528;-77
2023/06/13 09:54:05;;;;;;;5.00;2.70;;;;;;;18.68;53.18;97849.44;107210;1276;24379;-78
2023/06/13 09:56:33;;;;;;;4.20;2.80;;;;;;;18.72;52.73;97849.09;107112;1275;25297;-78
2023/06/13 09:59:01;;;;;;;5.60;2.90;;;;;;;18.64;53.17;97845.23;107177;1276;24255;-78
2023/06/13 10:01:29;;;;;;;8.80;3.30;;;;;;;18.74;52.81;97838.05;107205;1269;22632;-78
2023/06/13 10:03:58;;;;;;;4.90;2.60;;;;;;;18.71;52.17;97840.38;107142;1276;22737;-78
2023/06/13 10:06:25;;;;;;;4.10;2.60;;;;;;;18.71;52.15;97839.85;107158;1255;24308;-78
2023/06/13 10:08:54;;;;;;;4.00;2.90;;;;;;;18.90;51.89;97839.55;107205;1273;22655;-78
2023/06/13 10:11:25;;;;;;;4.70;2.70;;;;;;;18.86;51.59;97839.45;107127;1276;22585;-78
2023/06/13 10:13:59;;;;;;;7.00;2.70;;;;;;;18.64;50.61;97839.38;107121;1276;22559;-77
2023/06/13 10:16:35;;;;;;;3.30;2.70;;;;;;;18.54;50.52;97835.46;107108;1256;22520;-78
2023/06/13 10:19:05;;;;;;;6.70;3.60;;;;;;;18.73;50.39;97834.06;107306;1275;25287;-78
2023/06/13 10:21:36;;;;;;;4.60;2.40;;;;;;;18.94;50.68;97827.54;107412;1270;22544;-77
2023/06/13 10:24:20;;;;;;;4.20;2.40;;;;;;;19.28;50.70;97832.97;107481;1275;22709;-77
2023/06/13 10:26:55;;;;;;;3.50;2.70;;;;;;;19.31;49.15;97830.61;107489;1275;22562;-77
2023/06/13 10:29:44;;;;;;;4.60;2.50;;;;;;;19.12;48.93;97832.92;107327;1275;22524;-79
2023/06/13 10:32:27;;;;;;;7.70;2.70;;;;;;;19.12;49.69;97827.57;107371;1275;22591;-79
2023/06/13 10:35:10;;;;;;;3.90;2.70;;;;;;;19.49;49.71;97823.48;107347;1275;24243;-78
2023/06/13 10:37:41;;;;;;;5.20;2.20;;;;;;;19.52;48.64;97820.45;107343;1275;22539;-78
2023/06/13 10:40:15;;;;;;;5.20;2.40;;;;;;;19.51;48.41;97825.27;107288;1276;22541;-78
2023/06/13 10:42:50;;;;;;;4.80;2.60;;;;;;;19.23;46.73;97822.95;106918;1276;22528;-77
2023/06/13 10:45:24;;;;;;;3.00;2.50;;;;;;;19.07;47.71;97824.40;107277;1276;23910;-78
2023/06/13 10:47:52;;;;;;;4.40;2.40;;;;;;;19.06;48.45;97821.58;107208;1275;22020;-78
2023/06/13 10:50:21;;;;;;;2.80;2.50;;;;;;;19.17;47.82;97820.48;107435;1275;22531;-77
2023/06/13 10:52:55;;;;;;;4.40;3.00;;;;;;;19.26;47.82;97813.05;107495;1275;24395;-78
2023/06/13 10:55:29;;;;;;;4.60;2.40;;;;;;;19.26;47.67;97812.33;107404;1254;25485;-78
2023/06/13 10:57:59;;;;;;;3.30;2.80;;;;;;;19.37;48.26;97811.94;106983;1275;22794;-82
2023/06/13 11:00:29;;;;;;;4.10;2.30;;;;;;;19.52;48.07;97811.07;107418;1275;25331;-82
2023/06/13 11:03:04;;;;;;;6.40;2.40;;;;;;;19.65;47.72;97812.83;107619;1275;24222;-86
2023/06/13 11:05:54;;;;;;;4.60;2.90;;;;;;;19.60;47.73;97816.23;107495;1275;22554;-82
2023/06/13 11:08:26;;;;;;;5.50;2.70;;;;;;;19.54;47.43;97813.46;107394;1275;25235;-82
2023/06/13 11:10:55;;;;;;;4.00;2.60;;;;;;;19.58;47.13;97812.82;107479;1275;24047;-83
2023/06/13 11:13:32;;;;;;;3.60;2.60;;;;;;;19.51;47.57;97810.59;107465;1272;22810;-80
2023/06/13 11:16:36;;;;;;;5.60;2.60;;;;;;;19.58;47.51;97813.61;107415;1269;22600;-80
2023/06/13 11:19:11;;;;;;;3.70;2.60;;;;;;;19.44;46.08;97818.55;107369;1275;22535;-80
2023/06/13 11:22:05;;;;;;;4.70;2.40;;;;;;;19.27;47.07;97818.05;107436;1275;22792;-81
2023/06/13 11:24:34;;;;;;;6.80;2.70;;;;;;;19.23;47.27;97816.08;107317;1275;22524;-80
2023/06/13 11:27:04;;;;;;;5.90;3.00;;;;;;;19.19;47.12;97815.77;107176;1275;23918;-81
2023/06/13 11:29:36;;;;;;;4.70;2.50;;;;;;;19.11;47.16;97814.58;107372;1275;24120;-80
2023/06/13 11:32:08;;;;;;;4.40;2.70;;;;;;;19.07;47.43;97816.61;107430;1275;25290;-80
2023/06/13 11:34:46;;;;;;;4.00;2.30;;;;;;;18.96;47.50;97820.42;107391;1275;25465;-80
2023/06/13 11:37:35;;;;;;;6.10;2.50;;;;;;;18.77;47.52;97818.00;107312;1275;22530;-79
2023/06/13 11:40:06;;;;;;;6.40;2.40;;;;;;;18.65;47.93;97815.92;106773;1275;25933;-79
2023/06/13 11:42:46;;;;;;;6.40;2.40;;;;;;;18.70;48.06;97813.30;106953;1275;24069;-79